sensor_id;sensor_type;location;lat;lon;timestamp;P1;durP1;ratioP1;P2;durP2;ratioP2
27558;SDS011;15002;52.028;5.670;2023-02-28T00:00:30;4.70;;;2.85;;
27558;SDS011;15002;52.028;5.670;2023-02-28T00:02:56;4.28;;;2.67;;
27558;SDS011;15002;52.028;5.670;2023-02-28T00:05:23;4.30;;;3.17;;
27558;SDS011;15002;52.028;5.670;2023-02-28T00:07:50;3.95;;;3.00;;
27558;SDS011;15002;52.028;5.670;2023-02-28T00:10:17;7.20;;;3.10;;
27558;SDS011;15002;52.028;5.670;2023-02-28T00:12:48;4.85;;;2.78;;
27558;SDS011;15002;52.028;5.670;2023-02-28T00:15:16;6.53;;;2.58;;
27558;SDS011;15002;52.028;5.670;2023-02-28T00:17:42;4.30;;;2.63;;
27558;SDS011;15002;52.028;5.670;2023-02-28T00:20:08;4.45;;;2.85;;
27558;SDS011;15002;52.028;5.670;2023-02-28T00:22:40;5.55;;;2.65;;
27558;SDS011;15002;52.028;5.670;2023-02-28T00:25:08;6.65;;;2.88;;
27558;SDS011;15002;52.028;5.670;2023-02-28T00:27:35;5.97;;;3.03;;
27558;SDS011;15002;52.028;5.670;2023-02-28T00:30:02;7.55;;;3.25;;
27558;SDS011;15002;52.028;5.670;2023-02-28T00:32:29;5.25;;;3.33;;
27558;SDS011;15002;52.028;5.670;2023-02-28T00:34:55;5.38;;;3.10;;
27558;SDS011;15002;52.028;5.670;2023-02-28T00:37:20;4.70;;;3.22;;
27558;SDS011;15002;52.028;5.670;2023-02-28T00:39:46;5.15;;;3.25;;
27558;SDS011;15002;52.028;5.670;2023-02-28T00:42:12;7.97;;;3.08;;
27558;SDS011;15002;52.028;5.670;2023-02-28T00:44:37;6.15;;;3.40;;
27558;SDS011;15002;52.028;5.670;2023-02-28T00:47:03;7.30;;;3.42;;
27558;SDS011;15002;52.028;5.670;2023-02-28T00:49:29;8.10;;;3.33;;
27558;SDS011;15002;52.028;5.670;2023-02-28T00:51:55;8.15;;;3.42;;
27558;SDS011;15002;52.028;5.670;2023-02-28T00:54:21;7.28;;;3.35;;
27558;SDS011;15002;52.028;5.670;2023-02-28T00:56:48;6.00;;;3.80;;
27558;SDS011;15002;52.028;5.670;2023-02-28T00:59:14;4.22;;;3.10;;
27558;SDS011;15002;52.028;5.670;2023-02-28T01:01:40;5.20;;;3.50;;
27558;SDS011;15002;52.028;5.670;2023-02-28T01:04:07;5.32;;;3.50;;
27558;SDS011;15002;52.028;5.670;2023-02-28T01:06:32;6.60;;;3.28;;
27558;SDS011;15002;52.028;5.670;2023-02-28T01:08:58;9.88;;;4.30;;
27558;SDS011;15002;52.028;5.670;2023-02-28T01:11:25;7.95;;;3.60;;
27558;SDS011;15002;52.028;5.670;2023-02-28T01:13:51;5.55;;;3.67;;
27558;SDS011;15002;52.028;5.670;2023-02-28T01:16:16;7.30;;;3.75;;
27558;SDS011;15002;52.028;5.670;2023-02-28T01:18:42;8.75;;;3.70;;
27558;SDS011;15002;52.028;5.670;2023-02-28T01:21:10;4.63;;;2.95;;
27558;SDS011;15002;52.028;5.670;2023-02-28T01:23:37;6.07;;;3.55;;
27558;SDS011;15002;52.028;5.670;2023-02-28T01:26:04;5.63;;;3.58;;
27558;SDS011;15002;52.028;5.670;2023-02-28T01:28:30;6.32;;;2.95;;
27558;SDS011;15002;52.028;5.670;2023-02-28T01:30:56;5.57;;;3.00;;
27558;SDS011;15002;52.028;5.670;2023-02-28T01:33:22;6.35;;;3.65;;
27558;SDS011;15002;52.028;5.670;2023-02-28T01:35:47;7.78;;;3.35;;
27558;SDS011;15002;52.028;5.670;2023-02-28T01:38:13;4.20;;;3.28;;
27558;SDS011;15002;52.028;5.670;2023-02-28T01:40:40;5.60;;;3.33;;
27558;SDS011;15002;52.028;5.670;2023-02-28T01:43:17;6.40;;;3.88;;
27558;SDS011;15002;52.028;5.670;2023-02-28T01:45:52;6.40;;;3.05;;
27558;SDS011;15002;52.028;5.670;2023-02-28T01:48:21;4.20;;;3.13;;
27558;SDS011;15002;52.028;5.670;2023-02-28T01:50:52;6.38;;;3.30;;
27558;SDS011;15002;52.028;5.670;2023-02-28T01:53:22;6.82;;;3.35;;
27558;SDS011;15002;52.028;5.670;2023-02-28T01:55:52;5.40;;;3.03;;
27558;SDS011;15002;52.028;5.670;2023-02-28T01:58:19;6.47;;;3.47;;
27558;SDS011;15002;52.028;5.670;2023-02-28T02:00:45;8.75;;;3.05;;
27558;SDS011;15002;52.028;5.670;2023-02-28T02:03:15;7.55;;;3.30;;
27558;SDS011;15002;52.028;5.670;2023-02-28T02:05:44;6.15;;;3.35;;
27558;SDS011;15002;52.028;5.670;2023-02-28T02:08:13;6.75;;;3.47;;
27558;SDS011;15002;52.028;5.670;2023-02-28T02:10:47;6.70;;;3.65;;
27558;SDS011;15002;52.028;5.670;2023-02-28T02:30:18;6.47;;;3.05;;
27558;SDS011;15002;52.028;5.670;2023-02-28T02:41:39;5.90;;;3.50;;
27558;SDS011;15002;52.028;5.670;2023-02-28T02:46:55;10.13;;;4.00;;
27558;SDS011;15002;52.028;5.670;2023-02-28T02:49:27;4.95;;;3.30;;
27558;SDS011;15002;52.028;5.670;2023-02-28T02:51:56;7.53;;;3.57;;
27558;SDS011;15002;52.028;5.670;2023-02-28T02:54:40;6.55;;;3.80;;
27558;SDS011;15002;52.028;5.670;2023-02-28T02:57:29;5.45;;;3.50;;
27558;SDS011;15002;52.028;5.670;2023-02-28T02:59:58;8.98;;;3.20;;
27558;SDS011;15002;52.028;5.670;2023-02-28T03:02:28;7.68;;;3.65;;
27558;SDS011;15002;52.028;5.670;2023-02-28T03:04:59;5.68;;;4.00;;
27558;SDS011;15002;52.028;5.670;2023-02-28T03:07:28;7.93;;;3.80;;
27558;SDS011;15002;52.028;5.670;2023-02-28T03:09:54;11.38;;;4.13;;
27558;SDS011;15002;52.028;5.670;2023-02-28T03:12:32;10.27;;;3.95;;
27558;SDS011;15002;52.028;5.670;2023-02-28T03:15:11;6.15;;;4.03;;
27558;SDS011;15002;52.028;5.670;2023-02-28T03:25:54;7.57;;;4.07;;
27558;SDS011;15002;52.028;5.670;2023-02-28T03:31:10;6.28;;;3.70;;
27558;SDS011;15002;52.028;5.670;2023-02-28T03:33:59;8.00;;;3.95;;
27558;SDS011;15002;52.028;5.670;2023-02-28T03:36:35;10.45;;;3.78;;
27558;SDS011;15002;52.028;5.670;2023-02-28T03:39:10;5.93;;;3.80;;
27558;SDS011;15002;52.028;5.670;2023-02-28T03:41:57;10.77;;;3.80;;
27558;SDS011;15002;52.028;5.670;2023-02-28T03:45:08;6.30;;;3.58;;
27558;SDS011;15002;52.028;5.670;2023-02-28T03:47:33;6.18;;;3.63;;
27558;SDS011;15002;52.028;5.670;2023-02-28T03:50:11;7.13;;;3.63;;
27558;SDS011;15002;52.028;5.670;2023-02-28T03:52:52;6.00;;;3.55;;
27558;SDS011;15002;52.028;5.670;2023-02-28T03:55:41;6.18;;;3.55;;
27558;SDS011;15002;52.028;5.670;2023-02-28T04:00:43;5.75;;;3.53;;
27558;SDS011;15002;52.028;5.670;2023-02-28T04:03:12;6.57;;;3.47;;
27558;SDS011;15002;52.028;5.670;2023-02-28T04:05:52;4.15;;;2.88;;
27558;SDS011;15002;52.028;5.670;2023-02-28T04:08:20;4.85;;;2.97;;
27558;SDS011;15002;52.028;5.670;2023-02-28T04:10:48;3.72;;;2.70;;
27558;SDS011;15002;52.028;5.670;2023-02-28T04:13:22;5.78;;;2.90;;
27558;SDS011;15002;52.028;5.670;2023-02-28T04:15:48;7.95;;;2.67;;
27558;SDS011;15002;52.028;5.670;2023-02-28T04:18:14;7.40;;;2.40;;
27558;SDS011;15002;52.028;5.670;2023-02-28T04:20:39;7.88;;;2.88;;
27558;SDS011;15002;52.028;5.670;2023-02-28T04:23:05;3.65;;;2.60;;
27558;SDS011;15002;52.028;5.670;2023-02-28T04:25:30;5.88;;;2.10;;
27558;SDS011;15002;52.028;5.670;2023-02-28T04:27:56;3.53;;;2.28;;
27558;SDS011;15002;52.028;5.670;2023-02-28T04:30:21;3.03;;;2.17;;
27558;SDS011;15002;52.028;5.670;2023-02-28T04:32:47;5.43;;;2.25;;
27558;SDS011;15002;52.028;5.670;2023-02-28T04:35:13;4.28;;;2.30;;
27558;SDS011;15002;52.028;5.670;2023-02-28T04:37:38;3.55;;;2.20;;
27558;SDS011;15002;52.028;5.670;2023-02-28T04:40:04;3.45;;;2.25;;
27558;SDS011;15002;52.028;5.670;2023-02-28T04:42:30;7.32;;;2.55;;
27558;SDS011;15002;52.028;5.670;2023-02-28T04:45:00;4.22;;;1.92;;
27558;SDS011;15002;52.028;5.670;2023-02-28T04:47:27;4.20;;;2.50;;
27558;SDS011;15002;52.028;5.670;2023-02-28T04:49:52;3.78;;;2.28;;
27558;SDS011;15002;52.028;5.670;2023-02-28T04:52:18;2.30;;;1.80;;
27558;SDS011;15002;52.028;5.670;2023-02-28T04:54:44;2.17;;;1.70;;
27558;SDS011;15002;52.028;5.670;2023-02-28T04:57:09;4.75;;;1.90;;
27558;SDS011;15002;52.028;5.670;2023-02-28T04:59:35;3.25;;;2.17;;
27558;SDS011;15002;52.028;5.670;2023-02-28T05:02:01;5.30;;;2.15;;
27558;SDS011;15002;52.028;5.670;2023-02-28T05:04:31;3.65;;;2.42;;
27558;SDS011;15002;52.028;5.670;2023-02-28T05:07:00;5.25;;;2.50;;
27558;SDS011;15002;52.028;5.670;2023-02-28T05:09:28;3.28;;;2.20;;
27558;SDS011;15002;52.028;5.670;2023-02-28T05:11:54;3.85;;;2.53;;
27558;SDS011;15002;52.028;5.670;2023-02-28T05:14:22;3.33;;;2.13;;
27558;SDS011;15002;52.028;5.670;2023-02-28T05:16:47;5.97;;;2.63;;
27558;SDS011;15002;52.028;5.670;2023-02-28T05:19:13;3.67;;;3.15;;
27558;SDS011;15002;52.028;5.670;2023-02-28T05:21:48;4.90;;;2.15;;
27558;SDS011;15002;52.028;5.670;2023-02-28T05:24:19;3.03;;;1.88;;
27558;SDS011;15002;52.028;5.670;2023-02-28T05:26:48;5.93;;;2.63;;
27558;SDS011;15002;52.028;5.670;2023-02-28T05:29:15;3.25;;;2.15;;
27558;SDS011;15002;52.028;5.670;2023-02-28T05:31:40;3.17;;;2.47;;
27558;SDS011;15002;52.028;5.670;2023-02-28T05:34:06;2.88;;;1.90;;
27558;SDS011;15002;52.028;5.670;2023-02-28T05:36:32;4.10;;;2.40;;
27558;SDS011;15002;52.028;5.670;2023-02-28T05:38:58;4.22;;;2.20;;
27558;SDS011;15002;52.028;5.670;2023-02-28T05:41:24;3.92;;;1.88;;
27558;SDS011;15002;52.028;5.670;2023-02-28T05:43:50;2.88;;;2.28;;
27558;SDS011;15002;52.028;5.670;2023-02-28T05:46:16;3.30;;;2.03;;
27558;SDS011;15002;52.028;5.670;2023-02-28T05:48:42;3.45;;;2.17;;
27558;SDS011;15002;52.028;5.670;2023-02-28T05:51:11;2.72;;;1.98;;
27558;SDS011;15002;52.028;5.670;2023-02-28T05:53:37;4.88;;;2.38;;
27558;SDS011;15002;52.028;5.670;2023-02-28T05:56:03;3.78;;;2.20;;
27558;SDS011;15002;52.028;5.670;2023-02-28T05:58:30;3.75;;;2.25;;
27558;SDS011;15002;52.028;5.670;2023-02-28T06:00:56;4.75;;;2.50;;
27558;SDS011;15002;52.028;5.670;2023-02-28T06:03:23;6.20;;;2.67;;
27558;SDS011;15002;52.028;5.670;2023-02-28T06:05:48;3.88;;;2.38;;
27558;SDS011;15002;52.028;5.670;2023-02-28T06:08:15;2.50;;;2.08;;
27558;SDS011;15002;52.028;5.670;2023-02-28T06:10:41;3.40;;;2.30;;
27558;SDS011;15002;52.028;5.670;2023-02-28T06:13:06;5.30;;;2.78;;
27558;SDS011;15002;52.028;5.670;2023-02-28T06:15:32;5.25;;;2.35;;
27558;SDS011;15002;52.028;5.670;2023-02-28T06:17:58;3.40;;;3.10;;
27558;SDS011;15002;52.028;5.670;2023-02-28T06:20:24;4.15;;;2.50;;
27558;SDS011;15002;52.028;5.670;2023-02-28T06:22:54;4.13;;;2.13;;
27558;SDS011;15002;52.028;5.670;2023-02-28T06:25:26;4.20;;;2.75;;
27558;SDS011;15002;52.028;5.670;2023-02-28T06:27:52;5.90;;;2.85;;
27558;SDS011;15002;52.028;5.670;2023-02-28T06:30:19;4.10;;;2.78;;
27558;SDS011;15002;52.028;5.670;2023-02-28T06:32:48;3.58;;;2.53;;
27558;SDS011;15002;52.028;5.670;2023-02-28T06:35:14;5.05;;;2.60;;
27558;SDS011;15002;52.028;5.670;2023-02-28T06:37:40;5.28;;;2.50;;
27558;SDS011;15002;52.028;5.670;2023-02-28T06:40:07;4.03;;;2.42;;
27558;SDS011;15002;52.028;5.670;2023-02-28T06:42:34;6.07;;;2.72;;
27558;SDS011;15002;52.028;5.670;2023-02-28T06:45:00;3.70;;;2.40;;
27558;SDS011;15002;52.028;5.670;2023-02-28T06:47:28;3.35;;;2.45;;
27558;SDS011;15002;52.028;5.670;2023-02-28T06:49:55;3.65;;;2.80;;
27558;SDS011;15002;52.028;5.670;2023-02-28T06:52:21;5.15;;;2.63;;
27558;SDS011;15002;52.028;5.670;2023-02-28T06:54:47;2.63;;;2.22;;
27558;SDS011;15002;52.028;5.670;2023-02-28T06:57:25;3.88;;;2.55;;
27558;SDS011;15002;52.028;5.670;2023-02-28T06:59:52;3.90;;;2.47;;
27558;SDS011;15002;52.028;5.670;2023-02-28T07:02:18;5.55;;;2.72;;
27558;SDS011;15002;52.028;5.670;2023-02-28T07:04:43;4.97;;;2.55;;
27558;SDS011;15002;52.028;5.670;2023-02-28T07:07:09;3.65;;;2.65;;
27558;SDS011;15002;52.028;5.670;2023-02-28T07:09:35;9.63;;;2.65;;
27558;SDS011;15002;52.028;5.670;2023-02-28T07:12:01;3.13;;;2.53;;
27558;SDS011;15002;52.028;5.670;2023-02-28T07:14:26;6.53;;;2.65;;
27558;SDS011;15002;52.028;5.670;2023-02-28T07:16:52;3.08;;;2.10;;
27558;SDS011;15002;52.028;5.670;2023-02-28T07:19:18;3.00;;;1.98;;
27558;SDS011;15002;52.028;5.670;2023-02-28T07:21:43;4.88;;;2.35;;
27558;SDS011;15002;52.028;5.670;2023-02-28T07:24:10;3.53;;;2.42;;
27558;SDS011;15002;52.028;5.670;2023-02-28T07:26:35;5.57;;;2.75;;
27558;SDS011;15002;52.028;5.670;2023-02-28T07:29:01;4.97;;;2.17;;
27558;SDS011;15002;52.028;5.670;2023-02-28T07:31:27;2.85;;;2.22;;
27558;SDS011;15002;52.028;5.670;2023-02-28T07:33:53;4.47;;;2.20;;
27558;SDS011;15002;52.028;5.670;2023-02-28T07:36:19;4.80;;;2.63;;
27558;SDS011;15002;52.028;5.670;2023-02-28T07:38:45;2.63;;;2.10;;
27558;SDS011;15002;52.028;5.670;2023-02-28T07:41:13;2.47;;;2.10;;
27558;SDS011;15002;52.028;5.670;2023-02-28T07:43:40;3.60;;;2.45;;
27558;SDS011;15002;52.028;5.670;2023-02-28T07:46:07;4.82;;;2.30;;
27558;SDS011;15002;52.028;5.670;2023-02-28T07:48:34;5.15;;;2.22;;
27558;SDS011;15002;52.028;5.670;2023-02-28T07:51:00;5.80;;;2.25;;
27558;SDS011;15002;52.028;5.670;2023-02-28T07:53:27;4.63;;;2.70;;
27558;SDS011;15002;52.028;5.670;2023-02-28T07:55:57;3.42;;;1.88;;
27558;SDS011;15002;52.028;5.670;2023-02-28T07:58:24;8.38;;;1.83;;
27558;SDS011;15002;52.028;5.670;2023-02-28T08:00:50;3.95;;;1.80;;
27558;SDS011;15002;52.028;5.670;2023-02-28T08:03:19;6.00;;;2.53;;
27558;SDS011;15002;52.028;5.670;2023-02-28T08:05:46;3.80;;;2.47;;
27558;SDS011;15002;52.028;5.670;2023-02-28T08:08:13;2.97;;;2.10;;
27558;SDS011;15002;52.028;5.670;2023-02-28T08:10:39;3.25;;;1.90;;
27558;SDS011;15002;52.028;5.670;2023-02-28T08:13:05;2.00;;;1.73;;
27558;SDS011;15002;52.028;5.670;2023-02-28T08:15:31;3.22;;;1.95;;
27558;SDS011;15002;52.028;5.670;2023-02-28T08:17:57;2.60;;;1.77;;
27558;SDS011;15002;52.028;5.670;2023-02-28T08:20:24;4.68;;;2.10;;
27558;SDS011;15002;52.028;5.670;2023-02-28T08:22:50;4.32;;;1.92;;
27558;SDS011;15002;52.028;5.670;2023-02-28T08:25:16;1.98;;;1.58;;
27558;SDS011;15002;52.028;5.670;2023-02-28T08:27:50;2.05;;;1.60;;
27558;SDS011;15002;52.028;5.670;2023-02-28T08:30:17;2.97;;;1.63;;
27558;SDS011;15002;52.028;5.670;2023-02-28T08:32:42;2.10;;;1.55;;
27558;SDS011;15002;52.028;5.670;2023-02-28T08:35:08;2.28;;;1.27;;
27558;SDS011;15002;52.028;5.670;2023-02-28T08:37:34;2.97;;;1.58;;
27558;SDS011;15002;52.028;5.670;2023-02-28T08:40:00;1.95;;;1.60;;
27558;SDS011;15002;52.028;5.670;2023-02-28T08:42:26;1.38;;;1.20;;
27558;SDS011;15002;52.028;5.670;2023-02-28T08:44:51;2.58;;;1.52;;
27558;SDS011;15002;52.028;5.670;2023-02-28T08:47:17;2.55;;;1.38;;
27558;SDS011;15002;52.028;5.670;2023-02-28T08:49:43;1.90;;;1.15;;
27558;SDS011;15002;52.028;5.670;2023-02-28T08:52:09;8.18;;;1.40;;
27558;SDS011;15002;52.028;5.670;2023-02-28T08:54:35;2.05;;;1.20;;
27558;SDS011;15002;52.028;5.670;2023-02-28T08:57:02;3.03;;;1.15;;
27558;SDS011;15002;52.028;5.670;2023-02-28T08:59:28;1.88;;;1.25;;
27558;SDS011;15002;52.028;5.670;2023-02-28T09:01:54;3.35;;;1.20;;
27558;SDS011;15002;52.028;5.670;2023-02-28T09:04:20;2.25;;;1.50;;
27558;SDS011;15002;52.028;5.670;2023-02-28T09:06:45;2.05;;;1.23;;
27558;SDS011;15002;52.028;5.670;2023-02-28T09:09:13;5.35;;;1.65;;
27558;SDS011;15002;52.028;5.670;2023-02-28T09:11:39;2.10;;;1.30;;
27558;SDS011;15002;52.028;5.670;2023-02-28T09:14:05;3.45;;;1.40;;
27558;SDS011;15002;52.028;5.670;2023-02-28T09:16:31;2.83;;;1.50;;
27558;SDS011;15002;52.028;5.670;2023-02-28T09:18:57;5.22;;;1.30;;
27558;SDS011;15002;52.028;5.670;2023-02-28T09:21:23;1.67;;;1.30;;
27558;SDS011;15002;52.028;5.670;2023-02-28T09:23:49;2.40;;;1.40;;
27558;SDS011;15002;52.028;5.670;2023-02-28T09:28:42;2.78;;;1.40;;
27558;SDS011;15002;52.028;5.670;2023-02-28T09:31:15;3.50;;;1.30;;
27558;SDS011;15002;52.028;5.670;2023-02-28T09:33:45;1.92;;;1.48;;
27558;SDS011;15002;52.028;5.670;2023-02-28T09:36:12;2.30;;;1.45;;
27558;SDS011;15002;52.028;5.670;2023-02-28T09:38:37;1.63;;;1.10;;
27558;SDS011;15002;52.028;5.670;2023-02-28T09:41:08;2.15;;;1.45;;
27558;SDS011;15002;52.028;5.670;2023-02-28T09:43:38;2.10;;;1.45;;
27558;SDS011;15002;52.028;5.670;2023-02-28T09:48:56;5.82;;;1.35;;
27558;SDS011;15002;52.028;5.670;2023-02-28T09:54:04;2.05;;;1.20;;
27558;SDS011;15002;52.028;5.670;2023-02-28T09:56:36;2.55;;;1.30;;
27558;SDS011;15002;52.028;5.670;2023-02-28T09:59:07;6.40;;;1.35;;
27558;SDS011;15002;52.028;5.670;2023-02-28T10:06:54;1.63;;;1.30;;
27558;SDS011;15002;52.028;5.670;2023-02-28T10:09:24;2.38;;;1.30;;
27558;SDS011;15002;52.028;5.670;2023-02-28T10:11:53;1.67;;;1.35;;
27558;SDS011;15002;52.028;5.670;2023-02-28T10:14:26;2.80;;;1.17;;
27558;SDS011;15002;52.028;5.670;2023-02-28T10:16:55;3.72;;;1.60;;
27558;SDS011;15002;52.028;5.670;2023-02-28T10:22:08;1.77;;;1.27;;
27558;SDS011;15002;52.028;5.670;2023-02-28T10:24:43;1.75;;;1.20;;
27558;SDS011;15002;52.028;5.670;2023-02-28T10:27:17;2.15;;;1.58;;
27558;SDS011;15002;52.028;5.670;2023-02-28T10:29:44;1.93;;;1.33;;
27558;SDS011;15002;52.028;5.670;2023-02-28T10:32:15;1.55;;;1.40;;
27558;SDS011;15002;52.028;5.670;2023-02-28T10:34:43;1.77;;;1.50;;
27558;SDS011;15002;52.028;5.670;2023-02-28T10:37:10;1.98;;;1.40;;
27558;SDS011;15002;52.028;5.670;2023-02-28T10:39:42;2.83;;;1.52;;
27558;SDS011;15002;52.028;5.670;2023-02-28T10:42:25;1.20;;;1.00;;
27558;SDS011;15002;52.028;5.670;2023-02-28T10:45:05;2.53;;;1.38;;
27558;SDS011;15002;52.028;5.670;2023-02-28T10:53:50;1.92;;;1.63;;
27558;SDS011;15002;52.028;5.670;2023-02-28T10:56:18;2.33;;;1.60;;
27558;SDS011;15002;52.028;5.670;2023-02-28T10:58:56;3.03;;;1.48;;
27558;SDS011;15002;52.028;5.670;2023-02-28T11:04:02;3.42;;;1.67;;
27558;SDS011;15002;52.028;5.670;2023-02-28T11:06:34;4.88;;;1.45;;
27558;SDS011;15002;52.028;5.670;2023-02-28T11:09:02;11.05;;;1.58;;
27558;SDS011;15002;52.028;5.670;2023-02-28T11:11:30;2.88;;;1.55;;
27558;SDS011;15002;52.028;5.670;2023-02-28T11:14:14;5.43;;;1.48;;
27558;SDS011;15002;52.028;5.670;2023-02-28T11:16:53;1.83;;;1.40;;
27558;SDS011;15002;52.028;5.670;2023-02-28T11:19:23;3.70;;;1.77;;
27558;SDS011;15002;52.028;5.670;2023-02-28T11:22:02;1.73;;;1.40;;
27558;SDS011;15002;52.028;5.670;2023-02-28T11:24:31;3.05;;;1.40;;
27558;SDS011;15002;52.028;5.670;2023-02-28T11:27:02;3.17;;;1.50;;
27558;SDS011;15002;52.028;5.670;2023-02-28T11:29:29;2.72;;;1.35;;
27558;SDS011;15002;52.028;5.670;2023-02-28T11:32:00;4.05;;;1.35;;
27558;SDS011;15002;52.028;5.670;2023-02-28T11:34:30;2.88;;;1.45;;
27558;SDS011;15002;52.028;5.670;2023-02-28T11:36:57;3.08;;;1.50;;
27558;SDS011;15002;52.028;5.670;2023-02-28T11:39:25;1.52;;;1.20;;
27558;SDS011;15002;52.028;5.670;2023-02-28T11:47:28;3.40;;;1.20;;
27558;SDS011;15002;52.028;5.670;2023-02-28T11:55:30;2.13;;;0.77;;
27558;SDS011;15002;52.028;5.670;2023-02-28T11:58:48;1.60;;;1.25;;
27558;SDS011;15002;52.028;5.670;2023-02-28T12:02:05;5.28;;;1.38;;
27558;SDS011;15002;52.028;5.670;2023-02-28T12:10:44;1.98;;;1.48;;
27558;SDS011;15002;52.028;5.670;2023-02-28T12:13:34;2.05;;;1.40;;
27558;SDS011;15002;52.028;5.670;2023-02-28T12:19:12;2.92;;;1.50;;
27558;SDS011;15002;52.028;5.670;2023-02-28T12:27:00;2.38;;;1.63;;
27558;SDS011;15002;52.028;5.670;2023-02-28T12:29:32;2.33;;;1.80;;
27558;SDS011;15002;52.028;5.670;2023-02-28T12:32:06;2.78;;;1.70;;
27558;SDS011;15002;52.028;5.670;2023-02-28T12:34:39;3.30;;;1.67;;
27558;SDS011;15002;52.028;5.670;2023-02-28T12:37:12;2.10;;;1.60;;
27558;SDS011;15002;52.028;5.670;2023-02-28T12:39:45;1.85;;;1.30;;
27558;SDS011;15002;52.028;5.670;2023-02-28T12:42:17;1.58;;;1.25;;
27558;SDS011;15002;52.028;5.670;2023-02-28T12:45:46;3.05;;;1.60;;
27558;SDS011;15002;52.028;5.670;2023-02-28T12:47:44;4.45;;;1.85;;
27558;SDS011;15002;52.028;5.670;2023-02-28T12:50:13;3.05;;;1.77;;
27558;SDS011;15002;52.028;5.670;2023-02-28T12:52:41;4.72;;;2.38;;
27558;SDS011;15002;52.028;5.670;2023-02-28T12:55:50;3.47;;;1.70;;
27558;SDS011;15002;52.028;5.670;2023-02-28T12:58:27;4.00;;;2.13;;
27558;SDS011;15002;52.028;5.670;2023-02-28T13:09:56;2.53;;;1.77;;
27558;SDS011;15002;52.028;5.670;2023-02-28T13:12:24;3.17;;;2.40;;
27558;SDS011;15002;52.028;5.670;2023-02-28T13:14:51;3.25;;;1.90;;
27558;SDS011;15002;52.028;5.670;2023-02-28T13:18:00;4.65;;;2.00;;
27558;SDS011;15002;52.028;5.670;2023-02-28T13:20:33;4.57;;;1.88;;
27558;SDS011;15002;52.028;5.670;2023-02-28T13:23:01;4.65;;;1.92;;
27558;SDS011;15002;52.028;5.670;2023-02-28T13:27:59;2.47;;;1.92;;
27558;SDS011;15002;52.028;5.670;2023-02-28T13:33:30;3.33;;;2.13;;
27558;SDS011;15002;52.028;5.670;2023-02-28T13:36:10;2.47;;;1.58;;
27558;SDS011;15002;52.028;5.670;2023-02-28T13:46:27;2.25;;;1.70;;
27558;SDS011;15002;52.028;5.670;2023-02-28T13:48:54;1.58;;;1.48;;
27558;SDS011;15002;52.028;5.670;2023-02-28T13:51:37;2.28;;;1.50;;
27558;SDS011;15002;52.028;5.670;2023-02-28T13:54:31;2.72;;;1.65;;
27558;SDS011;15002;52.028;5.670;2023-02-28T14:05:30;2.17;;;1.67;;
27558;SDS011;15002;52.028;5.670;2023-02-28T14:07:59;6.30;;;1.95;;
27558;SDS011;15002;52.028;5.670;2023-02-28T14:10:50;2.72;;;1.70;;
27558;SDS011;15002;52.028;5.670;2023-02-28T14:16:10;4.40;;;2.03;;
27558;SDS011;15002;52.028;5.670;2023-02-28T14:18:40;1.95;;;1.58;;
27558;SDS011;15002;52.028;5.670;2023-02-28T14:21:14;3.17;;;1.65;;
27558;SDS011;15002;52.028;5.670;2023-02-28T14:23:52;3.03;;;1.77;;
27558;SDS011;15002;52.028;5.670;2023-02-28T14:26:53;3.35;;;1.60;;
27558;SDS011;15002;52.028;5.670;2023-02-28T14:35:22;1.52;;;1.30;;
27558;SDS011;15002;52.028;5.670;2023-02-28T14:37:47;3.20;;;1.80;;
27558;SDS011;15002;52.028;5.670;2023-02-28T14:40:22;4.53;;;1.90;;
27558;SDS011;15002;52.028;5.670;2023-02-28T14:43:02;1.92;;;1.60;;
27558;SDS011;15002;52.028;5.670;2023-02-28T14:45:30;1.70;;;1.60;;
27558;SDS011;15002;52.028;5.670;2023-02-28T14:47:57;2.25;;;1.83;;
27558;SDS011;15002;52.028;5.670;2023-02-28T14:50:29;3.72;;;2.10;;
27558;SDS011;15002;52.028;5.670;2023-02-28T14:52:56;3.95;;;1.88;;
27558;SDS011;15002;52.028;5.670;2023-02-28T14:55:25;2.35;;;1.80;;
27558;SDS011;15002;52.028;5.670;2023-02-28T14:57:54;2.75;;;1.83;;
27558;SDS011;15002;52.028;5.670;2023-02-28T15:00:25;2.97;;;1.77;;
27558;SDS011;15002;52.028;5.670;2023-02-28T15:02:54;3.13;;;2.15;;
27558;SDS011;15002;52.028;5.670;2023-02-28T15:05:25;2.70;;;1.60;;
27558;SDS011;15002;52.028;5.670;2023-02-28T15:08:09;2.38;;;1.60;;
27558;SDS011;15002;52.028;5.670;2023-02-28T15:10:38;2.97;;;2.22;;
27558;SDS011;15002;52.028;5.670;2023-02-28T15:13:35;3.28;;;1.55;;
27558;SDS011;15002;52.028;5.670;2023-02-28T15:16:10;1.73;;;1.63;;
27558;SDS011;15002;52.028;5.670;2023-02-28T15:21:13;3.17;;;2.17;;
27558;SDS011;15002;52.028;5.670;2023-02-28T15:23:44;2.33;;;1.67;;
27558;SDS011;15002;52.028;5.670;2023-02-28T15:26:17;2.08;;;1.45;;
27558;SDS011;15002;52.028;5.670;2023-02-28T15:28:52;3.10;;;1.75;;
27558;SDS011;15002;52.028;5.670;2023-02-28T15:31:26;3.20;;;1.70;;
27558;SDS011;15002;52.028;5.670;2023-02-28T15:33:57;2.10;;;1.52;;
27558;SDS011;15002;52.028;5.670;2023-02-28T15:36:32;1.70;;;1.60;;
27558;SDS011;15002;52.028;5.670;2023-02-28T15:39:02;2.58;;;1.65;;
27558;SDS011;15002;52.028;5.670;2023-02-28T15:41:29;2.47;;;1.80;;
27558;SDS011;15002;52.028;5.670;2023-02-28T15:47:02;1.98;;;1.60;;
27558;SDS011;15002;52.028;5.670;2023-02-28T15:49:31;2.50;;;1.80;;
27558;SDS011;15002;52.028;5.670;2023-02-28T15:52:05;2.53;;;2.00;;
27558;SDS011;15002;52.028;5.670;2023-02-28T15:54:34;2.13;;;1.73;;
27558;SDS011;15002;52.028;5.670;2023-02-28T15:57:04;4.00;;;1.92;;
27558;SDS011;15002;52.028;5.670;2023-02-28T15:59:33;6.95;;;2.97;;
27558;SDS011;15002;52.028;5.670;2023-02-28T16:02:19;3.78;;;1.92;;
27558;SDS011;15002;52.028;5.670;2023-02-28T16:07:24;2.90;;;1.55;;
27558;SDS011;15002;52.028;5.670;2023-02-28T16:09:50;6.40;;;1.67;;
27558;SDS011;15002;52.028;5.670;2023-02-28T16:12:16;5.50;;;1.80;;
27558;SDS011;15002;52.028;5.670;2023-02-28T16:14:42;3.85;;;1.73;;
27558;SDS011;15002;52.028;5.670;2023-02-28T16:17:16;4.22;;;2.15;;
27558;SDS011;15002;52.028;5.670;2023-02-28T16:19:46;4.78;;;2.10;;
27558;SDS011;15002;52.028;5.670;2023-02-28T16:22:12;2.22;;;1.60;;
27558;SDS011;15002;52.028;5.670;2023-02-28T16:24:38;3.30;;;1.70;;
27558;SDS011;15002;52.028;5.670;2023-02-28T16:27:05;6.78;;;1.90;;
27558;SDS011;15002;52.028;5.670;2023-02-28T16:29:32;2.85;;;1.70;;
27558;SDS011;15002;52.028;5.670;2023-02-28T16:32:01;1.83;;;1.52;;
27558;SDS011;15002;52.028;5.670;2023-02-28T16:34:30;2.60;;;1.83;;
27558;SDS011;15002;52.028;5.670;2023-02-28T16:36:55;3.05;;;1.50;;
27558;SDS011;15002;52.028;5.670;2023-02-28T16:39:21;2.25;;;1.80;;
27558;SDS011;15002;52.028;5.670;2023-02-28T16:41:47;4.10;;;2.08;;
27558;SDS011;15002;52.028;5.670;2023-02-28T16:44:31;3.33;;;1.92;;
27558;SDS011;15002;52.028;5.670;2023-02-28T16:47:02;2.97;;;1.50;;
27558;SDS011;15002;52.028;5.670;2023-02-28T16:49:29;3.73;;;1.73;;
27558;SDS011;15002;52.028;5.670;2023-02-28T16:51:54;2.58;;;1.42;;
27558;SDS011;15002;52.028;5.670;2023-02-28T16:54:20;1.67;;;1.55;;
27558;SDS011;15002;52.028;5.670;2023-02-28T16:56:47;2.28;;;1.80;;
27558;SDS011;15002;52.028;5.670;2023-02-28T16:59:13;2.47;;;1.65;;
27558;SDS011;15002;52.028;5.670;2023-02-28T17:01:43;3.53;;;1.80;;
27558;SDS011;15002;52.028;5.670;2023-02-28T17:04:09;1.58;;;1.45;;
27558;SDS011;15002;52.028;5.670;2023-02-28T17:06:36;2.08;;;1.50;;
27558;SDS011;15002;52.028;5.670;2023-02-28T17:09:02;1.65;;;1.55;;
27558;SDS011;15002;52.028;5.670;2023-02-28T17:11:28;2.63;;;1.70;;
27558;SDS011;15002;52.028;5.670;2023-02-28T17:13:53;4.95;;;1.45;;
27558;SDS011;15002;52.028;5.670;2023-02-28T17:16:27;4.00;;;1.42;;
27558;SDS011;15002;52.028;5.670;2023-02-28T17:18:56;3.60;;;1.45;;
27558;SDS011;15002;52.028;5.670;2023-02-28T17:21:24;5.57;;;1.50;;
27558;SDS011;15002;52.028;5.670;2023-02-28T17:23:50;2.95;;;1.40;;